createdAt,value
2018-06-08T00:01:58.710Z,14.80
2018-06-08T00:04:27.271Z,14.90
2018-06-08T00:06:55.783Z,15.00
2018-06-08T00:11:52.714Z,15.00
2018-06-08T00:14:21.322Z,15.00
2018-06-08T00:16:49.960Z,15.00
2018-06-08T00:19:19.182Z,15.00
2018-06-08T00:21:47.841Z,15.00
2018-06-08T00:24:16.303Z,15.00
2018-06-08T00:26:44.824Z,14.90
2018-06-08T00:29:13.318Z,14.90
2018-06-08T00:34:10.488Z,14.90
2018-06-08T00:36:39.308Z,14.90
2018-06-08T00:39:09.026Z,15.00
2018-06-08T00:41:37.882Z,14.90
2018-06-08T00:44:06.396Z,15.00
2018-06-08T00:46:35.110Z,15.00
2018-06-08T00:49:03.640Z,15.00
2018-06-08T00:51:32.457Z,15.20
2018-06-08T00:54:01.154Z,15.10
2018-06-08T00:56:40.952Z,15.00
2018-06-08T00:59:09.489Z,15.00
2018-06-08T01:01:38.145Z,15.00
2018-06-08T01:04:06.680Z,14.90
2018-06-08T01:06:35.236Z,14.90
2018-06-08T01:09:04.018Z,15.00
2018-06-08T01:11:33.177Z,14.90
2018-06-08T01:14:01.846Z,14.80
2018-06-08T01:16:30.341Z,14.90
2018-06-08T01:18:59.100Z,14.90
2018-06-08T01:21:27.749Z,14.90
2018-06-08T01:23:56.411Z,14.90
2018-06-08T01:26:24.968Z,15.00
2018-06-08T01:28:53.494Z,15.00
2018-06-08T01:31:22.130Z,15.00
2018-06-08T01:33:50.919Z,14.90
2018-06-08T01:36:19.463Z,14.90
2018-06-08T01:41:16.507Z,14.80
2018-06-08T01:43:45.063Z,14.80
2018-06-08T01:46:13.861Z,14.70
2018-06-08T01:48:42.603Z,14.80
2018-06-08T01:51:11.431Z,14.80
2018-06-08T01:53:40.198Z,14.80
2018-06-08T01:56:08.754Z,14.80
2018-06-08T01:58:37.276Z,14.90
2018-06-08T02:01:05.894Z,14.90
2018-06-08T02:03:34.473Z,14.70
2018-06-08T02:06:03.008Z,14.70
2018-06-08T02:08:31.824Z,14.70
2018-06-08T02:11:00.474Z,14.70
2018-06-08T02:13:28.966Z,14.90
2018-06-08T02:15:57.827Z,14.80
2018-06-08T02:18:26.540Z,14.80
2018-06-08T02:20:55.306Z,14.70
2018-06-08T02:23:23.869Z,14.70
2018-06-08T02:28:20.612Z,14.70
2018-06-08T02:33:17.785Z,14.90
2018-06-08T02:35:46.410Z,14.80
2018-06-08T02:38:15.073Z,14.80
2018-06-08T02:40:43.906Z,14.80
2018-06-08T02:43:12.412Z,14.70
2018-06-08T02:48:09.576Z,14.90
2018-06-08T02:50:38.158Z,14.90
2018-06-08T02:55:34.902Z,14.70
2018-06-08T02:58:03.445Z,14.90
2018-06-08T03:00:32.617Z,14.90
2018-06-08T03:03:01.192Z,14.80
2018-06-08T03:05:30.138Z,14.80
2018-06-08T03:07:58.630Z,14.70
2018-06-08T03:12:55.898Z,14.80
2018-06-08T03:15:24.450Z,14.70
2018-06-08T03:17:52.916Z,14.80
2018-06-08T03:20:21.516Z,14.70
2018-06-08T03:22:50.348Z,14.60
2018-06-08T03:25:18.935Z,14.60
2018-06-08T03:27:47.452Z,15.00
2018-06-08T03:30:16.072Z,14.70
2018-06-08T03:32:44.604Z,14.70
2018-06-08T03:35:13.952Z,14.80
2018-06-08T03:37:42.464Z,14.70
2018-06-08T03:40:11.098Z,15.00
2018-06-08T03:42:39.643Z,14.80
2018-06-08T03:45:08.340Z,14.90
2018-06-08T03:47:36.905Z,14.70
2018-06-08T03:50:05.754Z,14.70
2018-06-08T03:52:34.246Z,14.70
2018-06-08T03:55:02.764Z,14.60
2018-06-08T03:57:31.618Z,14.80
2018-06-08T04:00:00.354Z,14.80
2018-06-08T04:02:28.885Z,14.50
2018-06-08T04:04:57.355Z,14.50
2018-06-08T04:07:25.805Z,14.80
2018-06-08T04:09:54.570Z,14.50
2018-06-08T04:12:23.197Z,14.60
2018-06-08T04:17:19.951Z,14.60
2018-06-08T04:22:17.346Z,14.60
2018-06-08T04:24:45.887Z,14.60
2018-06-08T04:27:14.424Z,14.70
2018-06-08T04:29:43.056Z,14.80
2018-06-08T04:34:39.890Z,14.80
2018-06-08T04:37:08.555Z,14.70
2018-06-08T04:39:37.547Z,14.90
2018-06-08T04:42:06.541Z,14.70
2018-06-08T04:44:35.069Z,14.70
2018-06-08T04:47:03.777Z,14.60
2018-06-08T04:49:32.285Z,14.80
2018-06-08T04:52:00.945Z,14.70
2018-06-08T04:54:29.474Z,14.90
2018-06-08T04:56:58.308Z,14.60
2018-06-08T04:59:26.974Z,14.70
2018-06-08T05:01:55.492Z,14.80
2018-06-08T05:04:24.138Z,14.70
2018-06-08T05:06:52.761Z,14.90
2018-06-08T05:09:22.101Z,14.90
2018-06-08T05:11:50.716Z,14.80
2018-06-08T05:14:19.376Z,14.60
2018-06-08T05:16:47.878Z,14.70
2018-06-08T05:19:16.546Z,14.70
2018-06-08T05:21:45.444Z,14.70
2018-06-08T05:24:14.031Z,14.90
2018-06-08T05:26:42.850Z,14.70
2018-06-08T05:29:11.408Z,14.70
2018-06-08T05:31:40.009Z,14.70
2018-06-08T05:34:08.672Z,14.70
2018-06-08T05:36:37.325Z,14.80
2018-06-08T05:39:08.646Z,14.80
2018-06-08T05:41:37.526Z,14.70
2018-06-08T05:44:06.314Z,14.80
2018-06-08T05:46:35.112Z,14.80
2018-06-08T05:49:03.662Z,14.80
2018-06-08T05:51:32.140Z,14.90
2018-06-08T05:54:00.859Z,14.90
2018-06-08T05:56:29.520Z,14.80
2018-06-08T05:58:58.205Z,15.00
2018-06-08T06:01:26.864Z,14.90
2018-06-08T06:03:55.368Z,15.00
2018-06-08T06:06:23.822Z,15.00
2018-06-08T06:08:52.377Z,15.20
2018-06-08T06:11:21.740Z,15.10
2018-06-08T06:13:50.601Z,15.10
2018-06-08T06:16:19.113Z,15.10
2018-06-08T06:18:47.696Z,15.10
2018-06-08T06:21:16.198Z,15.20
2018-06-08T06:23:44.735Z,15.20
2018-06-08T06:26:13.359Z,15.30
2018-06-08T06:31:10.207Z,15.10
2018-06-08T06:33:38.824Z,15.20
2018-06-08T06:36:07.315Z,15.00
2018-06-08T06:38:36.295Z,15.00
2018-06-08T06:41:04.876Z,15.10
2018-06-08T06:43:33.420Z,15.30
2018-06-08T06:46:02.302Z,14.90
2018-06-08T06:48:31.607Z,15.00
2018-06-08T06:51:00.191Z,15.00
2018-06-08T06:53:31.694Z,15.00
2018-06-08T06:56:00.578Z,15.00
2018-06-08T06:58:29.077Z,15.00
2018-06-08T07:00:57.625Z,14.90
2018-06-08T07:03:26.120Z,15.10
2018-06-08T07:05:55.251Z,15.10
2018-06-08T07:08:23.774Z,15.10
2018-06-08T07:10:52.275Z,15.10
2018-06-08T07:15:49.548Z,15.10
2018-06-08T07:18:18.059Z,15.30
2018-06-08T07:20:46.602Z,15.20
2018-06-08T07:23:15.130Z,15.70
2018-06-08T07:25:43.816Z,15.70
2018-06-08T07:28:12.380Z,15.70
2018-06-08T07:30:40.898Z,15.70
2018-06-08T07:33:09.418Z,15.90
2018-06-08T07:35:37.956Z,15.80
2018-06-08T07:38:06.508Z,15.80
2018-06-08T07:40:35.060Z,15.80
2018-06-08T07:43:03.578Z,16.00
2018-06-08T07:45:32.297Z,15.90
2018-06-08T07:48:00.866Z,15.80
2018-06-08T07:55:25.993Z,15.80
2018-06-08T08:00:22.861Z,15.80
2018-06-08T08:02:51.557Z,15.80
2018-06-08T08:05:20.103Z,15.90
2018-06-08T08:07:49.064Z,15.90
2018-06-08T08:10:17.712Z,15.90
2018-06-08T08:12:46.220Z,15.70
2018-06-08T08:15:15.367Z,15.90
2018-06-08T08:17:43.738Z,15.80
2018-06-08T08:20:12.522Z,15.90
2018-06-08T08:22:41.839Z,15.90
2018-06-08T08:25:10.392Z,15.80
2018-06-08T08:27:39.795Z,16.00
2018-06-08T08:30:08.520Z,16.00
2018-06-08T08:32:37.908Z,15.90
2018-06-08T08:35:08.520Z,15.80
2018-06-08T08:37:40.253Z,16.10
2018-06-08T08:40:09.431Z,15.90
2018-06-08T08:42:39.781Z,16.00
2018-06-08T08:45:08.900Z,16.10
2018-06-08T08:50:07.386Z,16.20
2018-06-08T08:52:37.180Z,16.20
2018-06-08T08:55:07.671Z,16.30
2018-06-08T08:57:38.462Z,16.20
2018-06-08T09:00:08.080Z,16.40
2018-06-08T09:02:37.203Z,16.40
2018-06-08T09:05:07.291Z,16.30
2018-06-08T09:07:36.847Z,16.30
2018-06-08T09:10:05.858Z,16.30
2018-06-08T09:12:34.978Z,16.40
2018-06-08T09:15:04.551Z,16.40
2018-06-08T09:17:34.946Z,16.40
2018-06-08T09:20:05.004Z,16.40
2018-06-08T09:22:36.759Z,16.40
2018-06-08T09:25:05.414Z,16.40
2018-06-08T09:27:34.749Z,16.30
2018-06-08T09:30:05.453Z,16.40
2018-06-08T09:32:35.436Z,16.40
2018-06-08T09:35:06.018Z,16.40
2018-06-08T09:37:38.194Z,16.40
2018-06-08T09:40:07.746Z,16.40
2018-06-08T09:42:36.939Z,16.40
2018-06-08T09:45:07.483Z,16.40
2018-06-08T09:47:36.160Z,16.40
2018-06-08T09:50:05.049Z,16.40
2018-06-08T09:52:33.554Z,16.50
2018-06-08T09:55:02.750Z,16.40
2018-06-08T09:57:32.176Z,16.40
2018-06-08T10:00:02.124Z,16.50
2018-06-08T10:02:30.986Z,16.40
2018-06-08T10:05:00.749Z,16.50
2018-06-08T10:07:33.124Z,16.50
2018-06-08T10:10:02.897Z,16.40
2018-06-08T10:12:31.569Z,16.40
2018-06-08T10:15:00.929Z,16.30
2018-06-08T10:17:29.815Z,16.40
2018-06-08T10:19:58.562Z,16.20
2018-06-08T10:22:27.459Z,16.40
2018-06-08T10:24:56.083Z,16.40
2018-06-08T10:27:24.948Z,16.60
2018-06-08T10:29:53.477Z,16.80
2018-06-08T10:32:22.359Z,16.80
2018-06-08T10:34:51.271Z,16.80
2018-06-08T10:37:19.835Z,16.80
2018-06-08T10:39:48.375Z,16.80
2018-06-08T10:42:17.061Z,17.00
2018-06-08T10:44:45.998Z,17.30
2018-06-08T10:47:14.842Z,17.40
2018-06-08T10:49:43.605Z,17.30
2018-06-08T10:52:12.372Z,17.60
2018-06-08T10:54:41.052Z,17.80
2018-06-08T10:57:09.781Z,17.90
2018-06-08T10:59:38.468Z,18.00
2018-06-08T11:02:07.155Z,18.00
2018-06-08T11:04:35.922Z,17.80
2018-06-08T11:07:04.872Z,17.80
2018-06-08T11:09:33.552Z,17.90
2018-06-08T11:12:02.190Z,17.90
2018-06-08T11:14:31.146Z,17.80
2018-06-08T11:16:59.864Z,17.80
2018-06-08T11:19:28.366Z,17.60
2018-06-08T11:21:56.957Z,17.70
2018-06-08T11:24:25.486Z,17.80
2018-06-08T11:26:54.596Z,17.70
2018-06-08T11:29:24.212Z,17.70
2018-06-08T11:31:52.922Z,17.80
2018-06-08T11:34:21.553Z,18.00
2018-06-08T11:36:50.383Z,17.90
2018-06-08T11:39:19.013Z,17.90
2018-06-08T11:41:47.524Z,17.80
2018-06-08T11:44:16.085Z,17.70
2018-06-08T11:46:44.922Z,17.80
2018-06-08T11:49:13.496Z,17.70
2018-06-08T11:51:42.379Z,17.80
2018-06-08T11:54:11.028Z,17.80
2018-06-08T11:56:39.730Z,17.80
2018-06-08T11:59:08.444Z,17.80
2018-06-08T12:01:37.342Z,17.70
2018-06-08T12:04:05.954Z,17.70
2018-06-08T12:06:34.646Z,17.60
2018-06-08T12:09:03.295Z,17.60
2018-06-08T12:11:32.150Z,17.60
2018-06-08T12:14:00.988Z,17.70
2018-06-08T12:16:29.769Z,17.70
2018-06-08T12:21:26.860Z,17.90
2018-06-08T12:23:55.387Z,17.90
2018-06-08T12:26:23.900Z,17.90
2018-06-08T12:28:52.568Z,17.90
2018-06-08T12:31:21.134Z,17.90
2018-06-08T12:33:49.623Z,17.90
2018-06-08T12:38:46.888Z,17.90
2018-06-08T12:41:15.491Z,18.00
2018-06-08T12:43:44.128Z,18.10
2018-06-08T12:46:12.769Z,18.10
2018-06-08T12:48:41.440Z,18.20
2018-06-08T12:53:38.161Z,18.20
2018-06-08T12:56:06.892Z,18.30
2018-06-08T12:58:35.645Z,18.30
2018-06-08T13:01:04.142Z,18.40
2018-06-08T13:03:32.760Z,18.30
2018-06-08T13:06:01.329Z,18.30
2018-06-08T13:08:30.010Z,18.30
2018-06-08T13:10:58.677Z,18.30
2018-06-08T13:13:27.233Z,18.40
2018-06-08T13:15:55.769Z,18.40
2018-06-08T13:18:24.925Z,18.30
2018-06-08T13:20:53.785Z,18.30
2018-06-08T13:23:22.396Z,18.40
2018-06-08T13:28:19.223Z,18.50
2018-06-08T13:30:47.760Z,18.40
2018-06-08T13:33:16.739Z,18.40
2018-06-08T13:35:45.268Z,18.50
2018-06-08T13:38:13.928Z,18.60
2018-06-08T13:40:43.179Z,18.60
2018-06-08T13:45:40.736Z,18.60
2018-06-08T13:48:09.357Z,18.50
2018-06-08T13:50:37.877Z,18.40
2018-06-08T13:53:06.694Z,18.30
2018-06-08T13:55:35.259Z,18.30
2018-06-08T13:58:04.090Z,18.50
2018-06-08T14:00:32.963Z,18.60
2018-06-08T14:05:29.828Z,18.70
2018-06-08T14:07:58.351Z,18.50
2018-06-08T14:10:27.090Z,18.50
2018-06-08T14:12:55.621Z,18.40
2018-06-08T14:15:25.373Z,18.40
2018-06-08T14:20:22.935Z,18.30
2018-06-08T14:22:51.493Z,18.10
2018-06-08T14:25:20.149Z,18.20
2018-06-08T14:27:49.032Z,18.30
2018-06-08T14:30:17.574Z,18.40
2018-06-08T14:32:46.119Z,18.40
2018-06-08T14:35:14.589Z,18.10
2018-06-08T14:37:43.057Z,18.10
2018-06-08T14:40:11.943Z,17.90
2018-06-08T14:42:40.712Z,17.90
2018-06-08T14:45:09.321Z,17.60
2018-06-08T14:47:38.059Z,17.80
2018-06-08T14:50:06.755Z,17.60
2018-06-08T14:52:35.247Z,17.60
2018-06-08T14:55:03.858Z,17.40
2018-06-08T14:57:32.550Z,17.40
2018-06-08T15:00:01.473Z,17.40
2018-06-08T15:02:30.135Z,17.30
2018-06-08T15:04:59.003Z,17.20
2018-06-08T15:07:27.611Z,17.40
2018-06-08T15:09:56.145Z,17.50
2018-06-08T15:12:25.035Z,17.30
2018-06-08T15:14:53.536Z,17.30
2018-06-08T15:17:22.067Z,17.20
2018-06-08T15:19:50.550Z,17.10
2018-06-08T15:24:47.445Z,17.40
2018-06-08T15:27:15.993Z,17.50
2018-06-08T15:32:12.983Z,17.80
2018-06-08T15:34:41.877Z,17.90
2018-06-08T15:37:10.383Z,18.00
2018-06-08T15:39:39.145Z,18.00
2018-06-08T15:42:08.124Z,18.00
2018-06-08T15:44:36.742Z,18.20
2018-06-08T15:47:05.305Z,18.20
2018-06-08T15:49:33.964Z,18.10
2018-06-08T15:52:02.511Z,18.10
2018-06-08T15:56:59.341Z,18.10
2018-06-08T15:59:27.847Z,17.90
2018-06-08T16:01:56.537Z,17.90
2018-06-08T16:04:25.296Z,17.90
2018-06-08T16:06:53.902Z,17.80
2018-06-08T16:09:22.472Z,17.80
2018-06-08T16:11:51.136Z,17.80
2018-06-08T16:14:19.669Z,17.80
2018-06-08T16:16:48.522Z,17.70
2018-06-08T16:19:17.033Z,17.80
2018-06-08T16:21:45.548Z,17.80
2018-06-08T16:24:14.062Z,17.70
2018-06-08T16:26:42.564Z,17.70
2018-06-08T16:31:39.519Z,17.50
2018-06-08T16:34:08.064Z,17.50
2018-06-08T16:36:36.716Z,17.40
2018-06-08T16:39:07.601Z,17.40
2018-06-08T16:41:36.592Z,17.40
2018-06-08T16:44:05.107Z,17.30
2018-06-08T16:46:33.805Z,17.10
2018-06-08T16:49:02.926Z,17.10
2018-06-08T16:51:31.560Z,17.00
2018-06-08T16:56:28.512Z,16.70
2018-06-08T16:58:57.065Z,16.80
2018-06-08T17:03:55.083Z,16.80
2018-06-08T17:06:23.726Z,16.80
2018-06-08T17:08:52.888Z,16.80
2018-06-08T17:11:21.518Z,16.80
2018-06-08T17:13:50.154Z,16.80
2018-06-08T17:16:18.654Z,16.70
2018-06-08T17:18:47.741Z,16.60
2018-06-08T17:21:16.499Z,16.60
2018-06-08T17:23:45.171Z,16.60
2018-06-08T17:26:13.732Z,16.50
2018-06-08T17:28:42.354Z,16.50
2018-06-08T17:31:11.272Z,16.60
2018-06-08T17:33:40.049Z,16.60
2018-06-08T17:36:08.838Z,16.60
2018-06-08T17:38:37.534Z,16.80
2018-06-08T17:41:06.409Z,16.80
2018-06-08T17:43:35.391Z,16.40
2018-06-08T17:46:04.488Z,16.30
2018-06-08T17:48:33.137Z,16.30
2018-06-08T17:53:30.223Z,16.30
2018-06-08T17:55:58.998Z,16.40
2018-06-08T17:58:27.571Z,16.30
2018-06-08T18:00:56.120Z,16.30
2018-06-08T18:03:24.965Z,16.30
2018-06-08T18:05:53.493Z,16.20
2018-06-08T18:08:22.067Z,16.20
2018-06-08T18:10:50.764Z,16.30
2018-06-08T18:13:19.374Z,16.30
2018-06-08T18:18:16.366Z,16.30
2018-06-08T18:20:44.942Z,16.30
2018-06-08T18:23:14.021Z,16.10
2018-06-08T18:25:42.538Z,16.10
2018-06-08T18:28:11.268Z,16.10
2018-06-08T18:30:40.044Z,16.10
2018-06-08T18:33:08.877Z,16.10
2018-06-08T18:35:37.696Z,16.10
2018-06-08T18:38:06.544Z,16.10
2018-06-08T18:40:35.292Z,16.10
2018-06-08T18:43:03.840Z,16.00
2018-06-08T18:45:32.394Z,16.10
2018-06-08T18:48:00.882Z,16.10
2018-06-08T18:50:29.676Z,16.20
2018-06-08T18:52:58.644Z,16.30
2018-06-08T18:55:27.205Z,16.30
2018-06-08T18:57:56.150Z,16.20
2018-06-08T19:00:24.974Z,16.10
2018-06-08T19:05:22.162Z,16.10
2018-06-08T19:07:50.735Z,16.10
2018-06-08T19:10:19.294Z,16.00
2018-06-08T19:12:47.800Z,16.00
2018-06-08T19:15:16.577Z,16.00
2018-06-08T19:17:45.653Z,16.10
2018-06-08T19:20:14.123Z,16.00
2018-06-08T19:22:43.601Z,16.00
2018-06-08T19:25:12.187Z,16.00
2018-06-08T19:27:40.915Z,15.90
2018-06-08T19:30:09.553Z,15.80
2018-06-08T19:32:38.079Z,15.70
2018-06-08T19:35:06.766Z,15.70
2018-06-08T19:37:35.232Z,15.70
2018-06-08T19:40:04.035Z,15.80
2018-06-08T19:42:32.546Z,15.70
2018-06-08T19:45:01.059Z,15.30
2018-06-08T19:47:29.702Z,15.50
2018-06-08T19:49:58.220Z,15.50
2018-06-08T19:52:27.078Z,15.40
2018-06-08T19:54:55.599Z,15.40
2018-06-08T19:57:24.137Z,15.30
2018-06-08T19:59:52.839Z,15.30
2018-06-08T20:02:21.367Z,15.20
2018-06-08T20:04:49.984Z,15.20
2018-06-08T20:07:18.516Z,15.30
2018-06-08T20:09:47.018Z,15.20
2018-06-08T20:12:17.726Z,15.20
2018-06-08T20:14:46.288Z,15.20
2018-06-08T20:17:15.100Z,15.10
2018-06-08T20:19:44.523Z,15.10
2018-06-08T20:22:13.162Z,15.10
2018-06-08T20:24:41.792Z,14.80
2018-06-08T20:29:38.578Z,15.00
2018-06-08T20:32:07.154Z,15.00
2018-06-08T20:34:35.992Z,15.00
2018-06-08T20:37:04.524Z,15.00
2018-06-08T20:39:33.052Z,15.00
2018-06-08T20:44:30.100Z,14.90
2018-06-08T20:46:58.779Z,14.90
2018-06-08T20:49:27.513Z,14.90
2018-06-08T20:51:56.234Z,14.80
2018-06-08T20:54:25.413Z,14.90
2018-06-08T20:57:05.049Z,14.90
2018-06-08T20:59:33.681Z,14.90
2018-06-08T21:02:02.594Z,14.80
2018-06-08T21:04:31.544Z,14.80
2018-06-08T21:07:00.513Z,14.80
2018-06-08T21:09:29.089Z,14.70
2018-06-08T21:11:57.873Z,14.70
2018-06-08T21:14:26.917Z,14.80
2018-06-08T21:16:55.738Z,14.70
2018-06-08T21:19:24.291Z,14.70
2018-06-08T21:21:52.860Z,14.70
2018-06-08T21:26:49.766Z,14.60
2018-06-08T21:29:18.557Z,14.60
2018-06-08T21:31:47.151Z,14.60
2018-06-08T21:34:16.271Z,14.60
2018-06-08T21:36:45.035Z,14.60
2018-06-08T21:39:13.553Z,14.60
2018-06-08T21:41:42.095Z,14.60
2018-06-08T21:44:10.771Z,14.50
2018-06-08T21:46:39.784Z,14.60
2018-06-08T21:49:08.446Z,14.50
2018-06-08T21:51:37.050Z,14.50
2018-06-08T21:54:05.974Z,14.50
2018-06-08T21:56:35.584Z,14.60
2018-06-08T21:59:04.192Z,14.50
2018-06-08T22:01:33.001Z,14.60
2018-06-08T22:04:01.646Z,14.60
2018-06-08T22:06:30.840Z,14.60
2018-06-08T22:08:59.539Z,14.70
2018-06-08T22:11:28.148Z,14.80
2018-06-08T22:13:56.736Z,14.80
2018-06-08T22:16:25.288Z,14.70
2018-06-08T22:18:53.792Z,14.90
2018-06-08T22:21:22.378Z,14.70
2018-06-08T22:23:50.962Z,14.70
2018-06-08T22:26:19.476Z,14.90
2018-06-08T22:28:48.027Z,14.90
2018-06-08T22:31:16.758Z,14.80
2018-06-08T22:33:45.680Z,14.80
2018-06-08T22:36:14.330Z,14.80
2018-06-08T22:41:11.133Z,14.90
2018-06-08T22:43:39.657Z,15.00
2018-06-08T22:46:08.495Z,15.00
2018-06-08T22:48:37.288Z,15.20
2018-06-08T22:51:05.864Z,15.20
2018-06-08T22:53:34.657Z,15.10
2018-06-08T22:56:03.187Z,15.20
2018-06-08T23:01:00.439Z,15.20
2018-06-08T23:03:29.005Z,15.20
2018-06-08T23:05:57.691Z,15.30
2018-06-08T23:08:26.861Z,15.30
2018-06-08T23:10:56.667Z,15.30
2018-06-08T23:13:26.379Z,15.30
2018-06-08T23:15:56.183Z,15.30
2018-06-08T23:18:25.388Z,15.30
2018-06-08T23:20:54.013Z,15.30
2018-06-08T23:23:22.579Z,15.30
2018-06-08T23:25:51.097Z,15.40
2018-06-08T23:28:19.642Z,15.40
2018-06-08T23:30:48.805Z,15.30
2018-06-08T23:33:17.372Z,15.30
2018-06-08T23:35:45.956Z,15.30
2018-06-08T23:38:14.596Z,15.40
2018-06-08T23:40:43.549Z,15.40
2018-06-08T23:43:12.530Z,15.40
2018-06-08T23:45:41.342Z,15.50
2018-06-08T23:48:10.783Z,15.50
2018-06-08T23:50:39.578Z,15.50
2018-06-08T23:53:08.348Z,15.50
2018-06-08T23:55:36.850Z,15.60
2018-06-08T23:58:05.468Z,15.60
